Time;durP1;ratioP1;P1;durP2;ratioP2;P2;SDS_P1;SDS_P2;PMS_P1;PMS_P2;Temp;Humidity;BMP_temperature;BMP_pressure;BME280_temperature;BME280_humidity;BME280_pressure;Samples;Min_cycle;Max_cycle;Signal;HPM_P1;HPM_P2
2021/04/24 00:08:29;;;;;;;6.43;4.20;;;15.20;61.20;;;;;;20747068;28;20144;-51
2021/04/24 00:18:32;;;;;;;6.97;4.38;;;15.20;61.40;;;;;;20746045;28;20133;-50
2021/04/24 00:28:34;;;;;;;4.88;3.60;;;15.10;61.30;;;;;;20746738;28;20128;-51
2021/04/24 00:38:36;;;;;;;4.30;3.53;;;15.00;60.80;;;;;;20744556;28;20104;-49
2021/04/24 00:48:38;;;;;;;5.13;3.20;;;15.00;60.40;;;;;;20759513;28;20066;-50
2021/04/24 00:58:40;;;;;;;4.60;2.53;;;14.80;59.80;;;;;;20759328;28;20054;-50
2021/04/24 01:08:42;;;;;;;6.13;3.00;;;14.80;59.30;;;;;;20964474;22;20042;-48
2021/04/24 01:18:44;;;;;;;5.90;2.55;;;14.70;58.90;;;;;;20758764;28;20446;-49
2021/04/24 01:28:47;;;;;;;5.20;2.83;;;14.70;59.00;;;;;;20757827;28;20054;-49
2021/04/24 01:38:49;;;;;;;5.85;2.95;;;14.50;59.00;;;;;;20758100;28;20052;-49
2021/04/24 01:48:56;;;;;;;5.82;3.00;;;14.40;59.00;;;;;;20757238;28;20080;-50
2021/04/24 01:59:02;;;;;;;5.55;3.30;;;14.40;59.20;;;;;;20756535;28;20084;-50
2021/04/24 02:09:09;;;;;;;4.68;2.72;;;14.30;59.30;;;;;;20755717;28;20054;-50
2021/04/24 02:19:12;;;;;;;4.80;3.38;;;14.30;59.30;;;;;;20756041;28;20505;-49
2021/04/24 02:29:16;;;;;;;5.38;3.40;;;14.20;59.60;;;;;;20754635;28;20057;-49
2021/04/24 02:39:27;;;;;;;7.20;3.63;;;14.20;59.60;;;;;;20754014;28;20050;-52
2021/04/24 02:49:31;;;;;;;5.22;3.50;;;14.00;59.80;;;;;;20753358;28;20058;-48
2021/04/24 02:59:35;;;;;;;7.65;3.45;;;14.00;59.90;;;;;;20751439;28;20494;-50
2021/04/24 03:09:38;;;;;;;4.70;3.20;;;13.90;60.10;;;;;;20750650;28;20567;-49
2021/04/24 03:19:41;;;;;;;5.50;3.70;;;13.80;59.80;;;;;;20751441;28;20481;-51
2021/04/24 03:29:43;;;;;;;5.72;3.00;;;13.70;59.90;;;;;;20750091;28;20049;-49
2021/04/24 03:39:46;;;;;;;4.97;3.50;;;13.70;59.60;;;;;;20750090;28;20054;-49
2021/04/24 03:50:07;;;;;;;5.78;3.92;;;13.70;59.40;;;;;;20750704;28;20486;-49
2021/04/24 04:00:19;;;;;;;6.82;4.00;;;13.60;59.60;;;;;;20750147;28;20072;-51
2021/04/24 04:10:25;;;;;;;6.32;3.80;;;13.60;59.60;;;;;;20747916;28;20107;-49
2021/04/24 04:20:43;;;;;;;5.95;4.45;;;13.40;59.70;;;;;;20758211;28;20456;-50
2021/04/24 04:30:55;;;;;;;7.05;4.25;;;13.40;59.70;;;;;;20763660;28;20073;-52
2021/04/24 04:41:08;;;;;;;5.65;3.83;;;13.40;59.90;;;;;;20762068;28;20050;-52
2021/04/24 04:51:18;;;;;;;7.30;3.75;;;13.40;59.80;;;;;;20762482;28;20110;-52
2021/04/24 05:01:21;;;;;;;5.07;3.85;;;13.30;59.40;;;;;;20761730;28;20046;-50
2021/04/24 05:11:23;;;;;;;5.38;4.03;;;13.20;59.20;;;;;;20760155;28;20129;-50
2021/04/24 05:21:27;;;;;;;6.55;4.38;;;13.20;58.90;;;;;;20760744;28;20401;-53
2021/04/24 05:31:29;;;;;;;7.07;4.80;;;13.20;59.10;;;;;;20758056;28;20089;-49
2021/04/24 05:41:33;;;;;;;7.25;4.80;;;13.20;59.00;;;;;;20757278;28;20159;-51
2021/04/24 05:51:35;;;;;;;7.10;5.43;;;13.10;59.00;;;;;;20757150;28;20061;-50
2021/04/24 06:01:37;;;;;;;7.03;5.07;;;13.10;59.10;;;;;;20756766;28;20050;-49
2021/04/24 06:11:39;;;;;;;8.02;4.93;;;13.20;58.90;;;;;;20755398;28;20054;-48
2021/04/24 06:21:41;;;;;;;6.85;5.25;;;13.20;58.60;;;;;;20755463;28;20049;-50
2021/04/24 06:31:44;;;;;;;7.63;5.95;;;13.20;58.70;;;;;;20753685;28;20049;-49
2021/04/24 06:41:46;;;;;;;8.02;6.00;;;13.20;58.70;;;;;;20751966;28;20133;-53
2021/04/24 06:51:49;;;;;;;11.18;5.70;;;13.40;58.10;;;;;;20752676;28;20062;-51
2021/04/24 07:01:51;;;;;;;7.88;5.75;;;13.70;57.60;;;;;;20752740;28;20054;-52
2021/04/24 07:11:53;;;;;;;7.50;5.05;;;13.90;56.80;;;;;;20750889;28;20569;-50
2021/04/24 07:21:56;;;;;;;6.72;4.90;;;14.20;55.90;;;;;;20750300;28;20050;-53
2021/04/24 07:31:58;;;;;;;6.55;5.22;;;14.50;55.40;;;;;;20749975;28;20050;-49
2021/04/24 07:42:02;;;;;;;6.88;4.60;;;14.50;55.20;;;;;;20749318;28;20054;-50
2021/04/24 07:52:06;;;;;;;6.80;4.47;;;14.70;54.90;;;;;;20748493;28;20057;-50
2021/04/24 08:02:12;;;;;;;5.25;4.07;;;15.10;54.40;;;;;;20747955;28;20059;-49
2021/04/24 08:12:14;;;;;;;6.80;4.03;;;15.20;54.00;;;;;;20747329;28;20413;-49
2021/04/24 08:22:16;;;;;;;4.10;3.00;;;15.40;53.50;;;;;;20747853;28;20058;-49
2021/04/24 08:32:18;;;;;;;4.10;3.25;;;15.60;53.10;;;;;;20746980;28;20054;-49
2021/04/24 08:42:22;;;;;;;4.55;3.33;;;15.70;53.00;;;;;;20747267;28;20060;-49
2021/04/24 08:52:24;;;;;;;7.15;3.28;;;16.00;52.40;;;;;;20745498;28;20061;-50
2021/04/24 09:02:27;;;;;;;5.50;3.65;;;15.80;52.90;;;;;;20745501;28;20061;-50
2021/04/24 09:12:40;;;;;;;5.80;3.08;;;15.90;52.70;;;;;;20758079;28;20085;-49
2021/04/24 09:23:01;;;;;;;5.28;3.13;;;16.30;51.70;;;;;;20759141;28;20104;-49
2021/04/24 09:33:14;;;;;;;3.85;2.55;;;16.70;51.40;;;;;;20755964;28;20061;-50
2021/04/24 09:43:16;;;;;;;8.05;2.53;;;17.00;52.00;;;;;;20756819;28;20457;-51
2021/04/24 09:53:19;;;;;;;5.68;2.53;;;17.20;50.40;;;;;;20756414;28;20054;-52
2021/04/24 10:03:38;;;;;;;4.17;2.20;;;17.20;50.70;;;;;;20756146;28;20046;-50
2021/04/24 10:13:40;;;;;;;3.65;2.47;;;17.30;50.30;;;;;;20753456;28;20120;-51
2021/04/24 10:23:42;;;;;;;3.47;2.17;;;17.40;50.00;;;;;;20752927;28;20057;-51
2021/04/24 10:33:44;;;;;;;4.45;2.40;;;17.70;49.80;;;;;;20752974;28;20058;-51
2021/04/24 10:44:07;;;;;;;4.28;2.35;;;17.70;49.40;;;;;;20752353;28;20453;-51
2021/04/24 10:54:11;;;;;;;3.35;2.17;;;17.60;49.60;;;;;;20748759;28;20058;-52
2021/04/24 11:04:43;;;;;;;4.85;2.20;;;18.00;49.30;;;;;;20751660;28;20566;-51
2021/04/24 11:14:46;;;;;;;7.53;3.28;;;18.20;48.70;;;;;;20750457;28;20494;-51
2021/04/24 11:24:48;;;;;;;5.05;2.08;;;18.20;48.80;;;;;;20747354;28;20053;-49
2021/04/24 11:34:49;;;;;;;8.10;3.08;;;18.50;49.90;;;;;;20727507;28;20414;-49
2021/04/24 11:44:51;;;;;;;4.90;2.25;;;18.80;48.30;;;;;;20748911;28;20149;-50
2021/04/24 11:54:53;;;;;;;4.50;2.72;;;18.70;47.90;;;;;;20748081;28;20050;-51
2021/04/24 12:05:09;;;;;;;4.55;2.65;;;18.80;47.40;;;;;;20747799;28;20115;-52
2021/04/24 12:15:18;;;;;;;4.65;2.30;;;19.10;46.70;;;;;;20742457;28;20053;-51
2021/04/24 12:25:21;;;;;;;5.40;2.38;;;19.20;46.80;;;;;;20747210;28;20053;-51
2021/04/24 12:35:24;;;;;;;4.90;3.30;;;19.50;46.40;;;;;;20745872;28;20065;-50
2021/04/24 12:45:25;;;;;;;4.80;3.10;;;19.60;46.40;;;;;;20762144;28;20062;-51
2021/04/24 12:55:47;;;;;;;6.97;3.67;;;19.70;45.80;;;;;;20762212;28;20057;-51
2021/04/24 13:05:49;;;;;;;3.75;2.42;;;19.90;45.80;;;;;;20761638;28;20502;-52
2021/04/24 13:15:51;;;;;;;3.53;2.53;;;19.90;46.10;;;;;;20758740;28;20049;-51
2021/04/24 13:25:53;;;;;;;4.40;3.08;;;19.70;45.80;;;;;;20760342;28;20100;-50
2021/04/24 13:35:55;;;;;;;4.53;2.78;;;19.50;46.70;;;;;;20757696;28;20064;-51
2021/04/24 13:45:57;;;;;;;6.68;3.33;;;19.40;47.00;;;;;;20757973;28;20402;-51
2021/04/24 13:55:59;;;;;;;5.15;3.47;;;19.20;47.90;;;;;;20755901;28;20058;-51
2021/04/24 14:06:00;;;;;;;8.32;4.10;;;18.90;48.80;;;;;;20755739;28;20145;-50
2021/04/24 14:16:04;;;;;;;6.47;3.75;;;18.70;49.50;;;;;;20753718;28;20096;-50
2021/04/24 14:26:06;;;;;;;5.70;3.45;;;18.60;50.10;;;;;;20754464;28;20500;-52
2021/04/24 14:36:08;;;;;;;4.28;3.00;;;18.60;50.60;;;;;;20752208;28;20054;-52
2021/04/24 14:46:10;;;;;;;6.60;4.20;;;18.40;51.20;;;;;;20752839;28;20061;-51
2021/04/24 14:56:12;;;;;;;5.70;4.22;;;18.40;51.40;;;;;;20749828;28;20064;-51
2021/04/24 15:06:13;;;;;;;6.00;4.07;;;18.30;51.80;;;;;;20751534;28;20058;-52
2021/04/24 15:16:15;;;;;;;7.70;3.78;;;18.10;52.40;;;;;;20749759;28;20053;-51
2021/04/24 15:26:21;;;;;;;4.85;3.58;;;18.00;52.60;;;;;;20748873;28;20049;-52
2021/04/24 15:36:31;;;;;;;6.43;4.32;;;18.10;52.70;;;;;;20747804;28;20147;-51
2021/04/24 15:46:33;;;;;;;5.10;3.80;;;18.20;52.50;;;;;;20747491;28;20046;-50
2021/04/24 15:56:36;;;;;;;11.75;5.00;;;18.10;52.40;;;;;;20746920;28;20054;-50
2021/04/24 16:06:38;;;;;;;4.67;3.83;;;18.00;53.10;;;;;;20748048;28;20100;-50
2021/04/24 16:16:39;;;;;;;7.85;3.65;;;17.80;53.50;;;;;;20759556;28;20069;-52
2021/04/24 16:26:41;;;;;;;5.20;3.63;;;17.90;53.70;;;;;;20763170;28;20050;-51
2021/04/24 16:36:43;;;;;;;6.13;4.28;;;17.90;53.70;;;;;;20760859;28;20516;-52
2021/04/24 16:46:45;;;;;;;5.60;3.75;;;17.80;53.60;;;;;;20760766;28;20085;-49
2021/04/24 16:56:46;;;;;;;5.72;3.40;;;17.60;54.30;;;;;;20758913;28;20058;-49
2021/04/24 17:06:48;;;;;;;5.13;4.10;;;17.50;54.70;;;;;;20759839;28;20415;-50
2021/04/24 17:16:50;;;;;;;6.18;3.78;;;17.40;55.30;;;;;;20758736;28;20418;-50
2021/04/24 17:26:52;;;;;;;4.82;4.03;;;17.30;55.60;;;;;;20757484;28;20089;-50
2021/04/24 17:36:54;;;;;;;5.07;3.90;;;17.20;56.10;;;;;;20757030;28;20057;-51
2021/04/24 17:46:56;;;;;;;6.80;3.80;;;17.20;56.40;;;;;;20756816;28;20141;-51
2021/04/24 17:56:57;;;;;;;6.20;3.75;;;17.10;57.10;;;;;;20755357;28;20045;-51
2021/04/24 18:06:59;;;;;;;5.43;4.03;;;17.00;57.60;;;;;;20756063;28;20057;-51
2021/04/24 18:17:01;;;;;;;6.15;4.50;;;16.80;58.30;;;;;;20753465;28;20461;-51
2021/04/24 18:27:04;;;;;;;5.88;4.82;;;16.70;59.00;;;;;;20753228;28;20173;-51
2021/04/24 18:37:07;;;;;;;8.75;5.50;;;16.70;59.50;;;;;;20752878;28;20076;-49
2021/04/24 18:47:08;;;;;;;5.57;4.32;;;16.60;60.00;;;;;;20752710;28;20054;-50
2021/04/24 18:57:10;;;;;;;7.03;4.97;;;16.40;60.30;;;;;;20751158;28;20050;-50
2021/04/24 19:07:12;;;;;;;7.25;5.22;;;16.40;60.40;;;;;;20750316;28;20042;-50
2021/04/24 19:17:14;;;;;;;9.88;6.30;;;16.40;62.80;;;;;;20748774;28;20064;-51
2021/04/24 19:27:16;;;;;;;8.05;6.15;;;16.20;66.10;;;;;;20747747;28;20062;-51
2021/04/24 19:37:17;;;;;;;8.85;7.00;;;16.10;67.90;;;;;;20748493;28;20061;-50
2021/04/24 19:47:19;;;;;;;11.27;8.63;;;16.00;69.40;;;;;;20747152;28;20465;-51
2021/04/24 19:57:21;;;;;;;9.60;7.45;;;15.70;71.30;;;;;;20747858;28;20053;-50
2021/04/24 20:07:23;;;;;;;8.85;7.95;;;15.60;71.60;;;;;;20745932;28;20668;-50
2021/04/24 20:17:25;;;;;;;13.15;10.18;;;15.40;72.50;;;;;;20745608;28;20116;-51
2021/04/24 20:27:28;;;;;;;9.43;7.53;;;15.30;73.60;;;;;;20746326;28;20058;-51
2021/04/24 20:37:29;;;;;;;10.07;8.73;;;15.30;73.40;;;;;;20746017;28;20057;-50
2021/04/24 20:47:33;;;;;;;12.30;10.32;;;15.30;73.60;;;;;;20745503;28;20053;-51
2021/04/24 20:57:34;;;;;;;12.93;9.40;;;15.20;75.00;;;;;;20746631;28;20152;-51
2021/04/24 21:07:37;;;;;;;14.13;10.80;;;15.10;75.20;;;;;;20758477;28;20440;-50
2021/04/24 21:17:41;;;;;;;13.98;11.00;;;15.10;76.00;;;;;;20757684;28;20137;-50
2021/04/24 21:27:44;;;;;;;11.13;8.37;;;15.10;76.00;;;;;;20758275;28;20089;-49
2021/04/24 21:37:45;;;;;;;9.48;7.45;;;15.00;75.60;;;;;;20757886;28;20056;-51
2021/04/24 21:47:51;;;;;;;12.13;9.05;;;15.00;75.40;;;;;;20757142;28;20046;-54
2021/04/24 21:57:53;;;;;;;11.30;8.43;;;14.90;76.20;;;;;;20756603;28;20478;-51
2021/04/24 22:07:54;;;;;;;10.55;7.40;;;14.80;76.50;;;;;;20755497;28;20112;-50
2021/04/24 22:17:57;;;;;;;9.27;6.65;;;14.70;76.50;;;;;;20753365;28;20478;-50
2021/04/24 22:27:59;;;;;;;10.27;6.80;;;14.60;76.70;;;;;;20754618;28;20072;-50
2021/04/24 22:38:01;;;;;;;6.85;6.15;;;14.50;76.00;;;;;;20754103;28;20429;-51
2021/04/24 22:48:03;;;;;;;7.25;6.00;;;14.40;75.50;;;;;;20752907;28;20169;-51
2021/04/24 22:58:07;;;;;;;8.65;6.40;;;14.30;74.80;;;;;;20751728;28;20052;-50
2021/04/24 23:08:09;;;;;;;8.30;6.97;;;14.30;75.20;;;;;;20751027;28;20089;-50
2021/04/24 23:18:10;;;;;;;9.93;7.55;;;14.20;76.00;;;;;;20749034;28;20136;-50
2021/04/24 23:28:12;;;;;;;12.30;8.00;;;14.20;76.40;;;;;;20748710;28;20046;-50
2021/04/24 23:38:14;;;;;;;14.05;8.93;;;14.20;76.50;;;;;;20749167;28;20061;-50
2021/04/24 23:48:16;;;;;;;8.02;7.05;;;14.20;76.70;;;;;;20748615;28;20046;-50
2021/04/24 23:58:19;;;;;;;9.65;7.72;;;14.20;76.50;;;;;;20748438;28;20056;-50
